createdAt,value
2018-01-31T01:52:20.512Z,101271.63
2018-01-31T01:52:21.005Z,100918.60
2018-01-31T01:53:09.432Z,100915.99
2018-01-31T01:54:15.623Z,100917.71
2018-01-31T01:55:21.526Z,100910.38
2018-01-31T01:56:27.718Z,100913.38
2018-01-31T01:57:33.859Z,100908.20
2018-01-31T01:58:39.939Z,100906.46
2018-01-31T01:59:46.055Z,100903.41
2018-01-31T02:00:52.192Z,100909.47
2018-01-31T02:01:58.109Z,100909.45
2018-01-31T02:03:04.599Z,100904.27
2018-01-31T02:04:10.574Z,100902.11
2018-01-31T02:05:19.302Z,100895.23
2018-01-31T02:06:24.863Z,100895.22
2018-01-31T02:07:30.805Z,100891.76
2018-01-31T02:08:36.951Z,100889.16
2018-01-31T02:09:43.112Z,100889.59
2018-01-31T02:10:49.264Z,100886.12
2018-01-31T02:11:55.358Z,100889.98
2018-01-31T02:13:01.507Z,100882.69
2018-01-31T02:14:07.684Z,100886.54
2018-01-31T02:15:13.574Z,100881.81
2018-01-31T02:16:19.748Z,100887.86
2018-01-31T02:17:25.916Z,100879.23
2018-01-31T02:18:32.042Z,100866.23
2018-01-31T02:19:38.224Z,100868.83
2018-01-31T02:20:44.459Z,100872.28
2018-01-31T02:21:50.620Z,100860.56
2018-01-31T02:22:56.774Z,100861.42
2018-01-31T02:24:02.922Z,100855.41
2018-01-31T02:25:09.100Z,100854.97
2018-01-31T02:26:15.293Z,100854.53
2018-01-31T02:27:22.332Z,100857.09
2018-01-31T02:28:28.501Z,100848.90
2018-01-31T02:29:34.681Z,100844.16
2018-01-31T02:30:40.856Z,100841.61
2018-01-31T02:31:46.705Z,100837.77
2018-01-31T02:32:52.936Z,100832.98
2018-01-31T02:33:58.871Z,100833.42
2018-01-31T02:35:08.848Z,100824.75
2018-01-31T02:36:15.040Z,100823.91
2018-01-31T02:37:20.961Z,100814.44
2018-01-31T02:38:38.152Z,100813.95
2018-01-31T02:39:55.190Z,100813.48
2018-01-31T02:41:01.086Z,100812.15
2018-01-31T02:42:07.203Z,100806.05
2018-01-31T02:43:13.310Z,100801.78
2018-01-31T02:44:19.466Z,100802.16
2018-01-31T02:45:25.601Z,100798.30
2018-01-31T02:46:31.720Z,100798.74
2018-01-31T02:47:37.940Z,100791.83
2018-01-31T02:48:44.290Z,100792.24
2018-01-31T02:49:50.391Z,100794.75
2018-01-31T02:50:56.570Z,100787.39
2018-01-31T02:52:02.703Z,100785.63
2018-01-31T02:53:08.872Z,100779.57
2018-01-31T02:54:14.996Z,100778.28
2018-01-31T02:55:21.096Z,100776.11
2018-01-31T02:56:27.340Z,100774.47
2018-01-31T02:57:38.619Z,100777.87
2018-01-31T02:58:44.750Z,100770.92
2018-01-31T02:59:50.916Z,100770.02
2018-01-31T03:01:00.447Z,100773.01
2018-01-31T03:02:06.621Z,100770.82
2018-01-31T03:03:12.785Z,100766.90
2018-01-31T03:04:19.846Z,100763.96
2018-01-31T03:05:25.948Z,100757.58
2018-01-31T03:06:32.063Z,100755.55
2018-01-31T03:07:38.209Z,100750.75
2018-01-31T03:08:45.587Z,100749.02
2018-01-31T03:09:51.753Z,100745.16
2018-01-31T03:10:57.895Z,100734.36
2018-01-31T03:12:04.100Z,100729.57
2018-01-31T03:13:10.237Z,100725.55
2018-01-31T03:14:16.427Z,100723.39
2018-01-31T03:15:23.518Z,100721.66
2018-01-31T03:16:29.660Z,100721.28
2018-01-31T03:17:35.804Z,100715.17
2018-01-31T03:18:42.031Z,100716.06
2018-01-31T03:19:48.842Z,100710.97
2018-01-31T03:20:54.958Z,100712.75
2018-01-31T03:22:01.081Z,100705.37
2018-01-31T03:23:07.245Z,100704.48
2018-01-31T03:24:13.422Z,100704.48
2018-01-31T03:25:19.524Z,100704.38
2018-01-31T03:26:25.624Z,100710.91
2018-01-31T03:27:31.835Z,100703.56
2018-01-31T03:28:37.952Z,100696.19
2018-01-31T03:29:48.947Z,100686.22
2018-01-31T03:30:54.859Z,100680.31
2018-01-31T03:32:00.955Z,100676.08
2018-01-31T03:33:06.399Z,100690.77
2018-01-31T03:34:12.308Z,100685.09
2018-01-31T03:35:19.428Z,100678.97
2018-01-31T03:36:25.565Z,100681.13
2018-01-31T03:37:34.283Z,100675.08
2018-01-31T03:38:40.175Z,100674.19
2018-01-31T03:39:46.279Z,100688.91
2018-01-31T03:40:52.156Z,100690.11
2018-01-31T03:41:58.019Z,100682.27
2018-01-31T03:43:03.514Z,100678.28
2018-01-31T03:44:09.412Z,100676.16
2018-01-31T03:45:15.543Z,100674.02
2018-01-31T03:46:21.733Z,100668.38
2018-01-31T03:47:27.936Z,100663.28
2018-01-31T03:48:34.051Z,100660.19
2018-01-31T03:49:40.212Z,100652.41
2018-01-31T03:50:46.311Z,100654.17
2018-01-31T03:51:52.466Z,100652.84
2018-01-31T03:52:58.413Z,100653.64
2018-01-31T03:54:04.531Z,100652.73
2018-01-31T03:55:10.729Z,100649.68
2018-01-31T03:56:16.887Z,100643.19
2018-01-31T03:57:23.053Z,100642.36
2018-01-31T03:58:29.207Z,100635.41
2018-01-31T03:59:35.616Z,100631.88
2018-01-31T04:00:41.069Z,100620.13
2018-01-31T04:01:46.898Z,100620.48
2018-01-31T04:02:53.032Z,100617.02
2018-01-31T04:03:59.189Z,100623.90
2018-01-31T04:05:05.051Z,100628.27
2018-01-31T04:06:11.266Z,100625.55
2018-01-31T04:07:17.413Z,100634.98
2018-01-31T04:08:23.542Z,100628.48
2018-01-31T04:09:30.575Z,100630.09
2018-01-31T04:10:36.745Z,100622.73
2018-01-31T04:11:42.897Z,100616.63
2018-01-31T04:12:54.166Z,100610.48
2018-01-31T04:14:00.310Z,100612.99
2018-01-31T04:15:06.457Z,100616.88
2018-01-31T04:16:11.643Z,100608.14
2018-01-31T04:17:17.804Z,100607.28
2018-01-31T04:18:24.048Z,100608.14
2018-01-31T04:19:30.202Z,100611.94
2018-01-31T04:20:36.356Z,100611.98
2018-01-31T04:21:42.547Z,100611.02
2018-01-31T04:22:48.739Z,100600.58
2018-01-31T04:23:54.948Z,100598.74
2018-01-31T04:25:00.828Z,100599.23
2018-01-31T04:26:06.992Z,100597.12
2018-01-31T04:27:13.112Z,100590.53
2018-01-31T04:28:19.284Z,100591.87
2018-01-31T04:29:25.435Z,100589.22
2018-01-31T04:30:31.649Z,100583.55
2018-01-31T04:31:37.774Z,100579.65
2018-01-31T04:32:43.934Z,100582.19
2018-01-31T04:33:50.777Z,100570.02
2018-01-31T04:34:56.916Z,100572.56
2018-01-31T04:36:07.876Z,100565.16
2018-01-31T04:37:14.027Z,100556.98
2018-01-31T04:38:20.219Z,100562.60
2018-01-31T04:39:26.416Z,100559.99
2018-01-31T04:40:32.590Z,100559.02
2018-01-31T04:41:38.397Z,100559.84
2018-01-31T04:42:44.652Z,100560.32
2018-01-31T04:43:52.052Z,100551.98
2018-01-31T04:45:03.924Z,100551.98
2018-01-31T04:46:10.085Z,100546.34
2018-01-31T04:47:16.256Z,100544.77
2018-01-31T04:48:22.446Z,100541.27
2018-01-31T04:49:28.609Z,100539.91
2018-01-31T04:50:34.404Z,100540.34
2018-01-31T04:51:40.608Z,100537.73
2018-01-31T04:52:47.408Z,100529.94
2018-01-31T04:53:54.128Z,100531.74
2018-01-31T04:55:00.383Z,100526.91
2018-01-31T04:56:07.181Z,100523.08
2018-01-31T04:57:13.519Z,100517.44
2018-01-31T04:58:19.851Z,100516.95
2018-01-31T04:59:26.064Z,100510.03
2018-01-31T05:00:32.678Z,100497.58
2018-01-31T05:01:39.056Z,100494.13
2018-01-31T05:02:45.426Z,100486.81
2018-01-31T05:03:51.612Z,100484.66
2018-01-31T05:04:57.944Z,100488.44
2018-01-31T05:06:04.233Z,100487.50
2018-01-31T05:07:10.663Z,100482.25
2018-01-31T05:08:16.905Z,100480.06
2018-01-31T05:09:23.170Z,100476.56
2018-01-31T05:10:29.380Z,100474.08
2018-01-31T05:11:35.601Z,100473.57
2018-01-31T05:12:41.937Z,100477.86
2018-01-31T05:13:48.909Z,100477.41
2018-01-31T05:14:55.239Z,100478.22
2018-01-31T05:16:01.456Z,100482.91
2018-01-31T05:17:07.068Z,100482.87
2018-01-31T05:18:13.508Z,100479.02
2018-01-31T05:19:19.721Z,100478.16
2018-01-31T05:20:25.885Z,100467.31
2018-01-31T05:21:32.076Z,100463.00
2018-01-31T05:22:39.051Z,100460.04
2018-01-31T05:23:45.211Z,100453.60
2018-01-31T05:24:51.380Z,100451.13
2018-01-31T05:25:57.859Z,100443.70
2018-01-31T05:27:03.843Z,100439.34
2018-01-31T05:28:10.052Z,100433.84
2018-01-31T05:29:16.168Z,100442.46
2018-01-31T05:30:22.356Z,100442.50
2018-01-31T05:31:28.494Z,100448.45
2018-01-31T05:32:34.620Z,100447.52
2018-01-31T05:33:40.748Z,100438.31
2018-01-31T05:34:46.601Z,100435.65
2018-01-31T05:35:52.757Z,100426.47
2018-01-31T05:36:59.052Z,100422.94
2018-01-31T05:38:05.224Z,100428.08
2018-01-31T05:39:11.410Z,100418.09
2018-01-31T05:40:17.546Z,100417.17
2018-01-31T05:41:23.753Z,100416.16
2018-01-31T05:42:32.556Z,100410.53
2018-01-31T05:43:38.822Z,100406.53
2018-01-31T05:44:45.017Z,100414.46
2018-01-31T05:45:51.165Z,100404.95
2018-01-31T05:46:57.302Z,100403.59
2018-01-31T05:48:03.491Z,100393.67
2018-01-31T05:49:09.698Z,100390.21
2018-01-31T05:50:15.847Z,100387.98
2018-01-31T05:51:21.993Z,100384.08
2018-01-31T05:52:28.149Z,100382.65
2018-01-31T05:53:34.308Z,100381.78
2018-01-31T05:54:40.470Z,100385.37
2018-01-31T05:55:46.604Z,100382.20
2018-01-31T05:56:53.314Z,100379.11
2018-01-31T05:57:59.488Z,100382.99
2018-01-31T05:59:05.664Z,100378.22
2018-01-31T06:00:11.962Z,100372.52
2018-01-31T06:01:18.120Z,100367.82
2018-01-31T06:02:24.116Z,100365.61
2018-01-31T06:03:30.266Z,100374.77
2018-01-31T06:04:36.048Z,100379.91
2018-01-31T06:05:42.239Z,100382.42
2018-01-31T06:06:48.395Z,100370.73
2018-01-31T06:07:54.500Z,100367.26
2018-01-31T06:09:00.369Z,100360.84
2018-01-31T06:10:06.493Z,100357.28
2018-01-31T06:11:12.658Z,100353.89
2018-01-31T06:12:18.563Z,100351.67
2018-01-31T06:13:24.676Z,100346.09
2018-01-31T06:14:30.832Z,100337.88
2018-01-31T06:15:36.995Z,100336.56
2018-01-31T06:16:43.111Z,100337.36
2018-01-31T06:17:49.806Z,100334.77
2018-01-31T06:18:57.380Z,100319.00
2018-01-31T06:20:04.411Z,100317.63
2018-01-31T06:21:11.772Z,100315.83
2018-01-31T06:22:20.484Z,100312.08
2018-01-31T06:23:28.930Z,100306.08
2018-01-31T06:24:35.739Z,100302.52
2018-01-31T06:25:45.403Z,100299.13
2018-01-31T06:26:53.481Z,100305.56
2018-01-31T06:28:00.627Z,100302.47
2018-01-31T06:29:07.366Z,100294.22
2018-01-31T06:30:14.410Z,100298.13
2018-01-31T06:31:22.297Z,100298.14
2018-01-31T06:32:29.331Z,100289.53
2018-01-31T06:33:36.964Z,100297.69
2018-01-31T06:34:45.084Z,100293.22
2018-01-31T06:35:51.820Z,100287.15
2018-01-31T06:36:57.960Z,100288.02
2018-01-31T06:38:03.902Z,100287.56
2018-01-31T06:39:10.123Z,100282.31
2018-01-31T06:40:16.308Z,100274.92
2018-01-31T06:41:23.569Z,100276.66
2018-01-31T06:42:29.755Z,100273.98
2018-01-31T06:43:35.949Z,100275.98
2018-01-31T06:44:42.368Z,100270.33
2018-01-31T06:45:48.662Z,100276.55
2018-01-31T06:46:54.863Z,100278.73
2018-01-31T06:48:01.027Z,100265.57
2018-01-31T06:49:07.200Z,100260.63
2018-01-31T06:50:13.024Z,100254.49
2018-01-31T06:51:19.288Z,100250.67
2018-01-31T06:52:25.455Z,100253.64
2018-01-31T06:53:31.820Z,100259.95
2018-01-31T06:54:38.002Z,100251.38
2018-01-31T06:55:44.120Z,100249.14
2018-01-31T06:56:50.261Z,100250.05
2018-01-31T06:57:57.484Z,100247.57
2018-01-31T06:59:02.911Z,100245.81
2018-01-31T07:00:09.066Z,100239.16
2018-01-31T07:01:15.377Z,100248.26
2018-01-31T07:02:27.721Z,100240.52
2018-01-31T07:03:33.919Z,100239.82
2018-01-31T07:04:40.154Z,100241.55
2018-01-31T07:05:46.305Z,100239.39
2018-01-31T07:06:52.511Z,100230.75
2018-01-31T07:07:58.717Z,100229.88
2018-01-31T07:09:04.223Z,100228.92
2018-01-31T07:10:10.202Z,100226.81
2018-01-31T07:11:16.371Z,100226.23
2018-01-31T07:12:22.592Z,100222.67
2018-01-31T07:13:28.797Z,100218.70
2018-01-31T07:14:34.972Z,100213.13
2018-01-31T07:15:41.370Z,100207.13
2018-01-31T07:16:47.597Z,100197.52
2018-01-31T07:17:53.732Z,100204.79
2018-01-31T07:18:59.904Z,100203.33
2018-01-31T07:20:05.382Z,100199.70
2018-01-31T07:21:11.257Z,100202.63
2018-01-31T07:22:17.783Z,100204.80
2018-01-31T07:23:23.950Z,100201.05
2018-01-31T07:24:30.144Z,100200.20
2018-01-31T07:25:36.323Z,100197.44
2018-01-31T07:26:41.824Z,100196.44
2018-01-31T07:27:48.008Z,100197.13
2018-01-31T07:28:54.168Z,100197.47
2018-01-31T07:30:00.344Z,100180.14
2018-01-31T07:31:06.534Z,100184.48
2018-01-31T07:32:12.676Z,100181.26
2018-01-31T07:33:18.844Z,100171.89
2018-01-31T07:34:25.088Z,100183.67
2018-01-31T07:35:31.240Z,100182.30
2018-01-31T07:36:37.391Z,100183.93
2018-01-31T07:37:43.543Z,100175.96
2018-01-31T07:38:49.709Z,100166.75
2018-01-31T07:39:55.954Z,100164.59
2018-01-31T07:41:02.132Z,100162.02
2018-01-31T07:42:12.802Z,100160.84
2018-01-31T07:43:21.844Z,100158.75
2018-01-31T07:44:27.994Z,100163.36
2018-01-31T07:45:34.286Z,100157.39
2018-01-31T07:46:40.163Z,100152.52
2018-01-31T07:47:46.328Z,100154.31
2018-01-31T07:48:52.478Z,100158.33
2018-01-31T07:49:58.734Z,100143.27
2018-01-31T07:51:04.910Z,100144.51
2018-01-31T07:52:11.239Z,100142.59
2018-01-31T07:53:17.337Z,100140.68
2018-01-31T07:54:23.213Z,100139.80
2018-01-31T07:55:29.375Z,100140.22
2018-01-31T07:56:35.654Z,100138.91
2018-01-31T07:57:41.920Z,100132.88
2018-01-31T07:58:48.088Z,100132.73
2018-01-31T07:59:54.273Z,100126.48
2018-01-31T08:01:00.445Z,100127.42
2018-01-31T08:02:06.400Z,100118.34
2018-01-31T08:03:12.557Z,100114.49
2018-01-31T08:04:18.731Z,100111.69
2018-01-31T08:05:24.184Z,100109.02
2018-01-31T08:06:30.337Z,100105.64
2018-01-31T08:07:36.319Z,100102.49
2018-01-31T08:08:42.164Z,100099.83
2018-01-31T08:09:49.298Z,100104.75
2018-01-31T08:10:55.487Z,100097.83
2018-01-31T08:12:01.660Z,100099.06
2018-01-31T08:13:07.853Z,100093.09
2018-01-31T08:14:13.982Z,100087.23
2018-01-31T08:15:20.212Z,100085.77
2018-01-31T08:16:26.386Z,100086.64
2018-01-31T08:17:32.542Z,100082.34
2018-01-31T08:18:38.797Z,100080.05
2018-01-31T08:19:44.972Z,100072.25
2018-01-31T08:20:52.960Z,100070.27
2018-01-31T08:21:59.125Z,100071.91
2018-01-31T08:23:05.316Z,100072.76
2018-01-31T08:24:10.838Z,100081.27
2018-01-31T08:25:16.362Z,100076.91
2018-01-31T08:26:22.540Z,100076.02
2018-01-31T08:27:28.647Z,100080.91
2018-01-31T08:28:34.444Z,100075.25
2018-01-31T08:29:40.362Z,100069.54
2018-01-31T08:30:46.248Z,100071.56
2018-01-31T08:31:52.439Z,100064.73
2018-01-31T08:32:58.663Z,100070.27
2018-01-31T08:34:04.788Z,100062.44
2018-01-31T08:35:10.969Z,100054.21
2018-01-31T08:36:17.128Z,100055.27
2018-01-31T08:37:23.258Z,100047.87
2018-01-31T08:38:29.439Z,100042.24
2018-01-31T08:39:35.594Z,100041.75
2018-01-31T08:40:45.630Z,100039.95
2018-01-31T08:41:51.872Z,100037.70
2018-01-31T08:42:58.339Z,100039.89
2018-01-31T08:44:04.541Z,100037.15
2018-01-31T08:45:11.373Z,100033.67
2018-01-31T08:46:17.632Z,100028.54
2018-01-31T08:47:23.819Z,100022.90
2018-01-31T08:48:30.032Z,100022.37
2018-01-31T08:49:36.174Z,100030.63
2018-01-31T08:50:41.660Z,100021.08
2018-01-31T08:51:47.575Z,100015.51
2018-01-31T08:52:53.785Z,100011.63
2018-01-31T08:53:59.272Z,100011.88
2018-01-31T08:55:04.739Z,100011.41
2018-01-31T08:56:10.896Z,100004.91
2018-01-31T08:57:17.029Z,100006.91
2018-01-31T08:58:23.149Z,99998.16
2018-01-31T08:59:29.304Z,100000.63
2018-01-31T09:00:35.188Z,99995.23
2018-01-31T09:01:40.664Z,99985.98
2018-01-31T09:02:46.815Z,99988.89
2018-01-31T09:03:52.988Z,99988.13
2018-01-31T09:04:58.824Z,99984.53
2018-01-31T09:06:04.364Z,99979.14
2018-01-31T09:07:10.208Z,99987.36
2018-01-31T09:08:16.356Z,99986.56
2018-01-31T09:09:23.355Z,99985.80
2018-01-31T09:10:29.500Z,99979.69
2018-01-31T09:11:35.697Z,99975.76
2018-01-31T09:12:41.640Z,99977.92
2018-01-31T09:13:47.968Z,99967.41
2018-01-31T09:14:54.156Z,99958.38
2018-01-31T09:16:00.339Z,99962.25
2018-01-31T09:17:06.573Z,99957.57
2018-01-31T09:18:12.756Z,99951.06
2018-01-31T09:19:18.951Z,99958.02
2018-01-31T09:20:25.080Z,99958.22
2018-01-31T09:21:30.569Z,99953.58
2018-01-31T09:22:36.897Z,99950.91
2018-01-31T09:23:42.679Z,99944.75
2018-01-31T09:24:48.548Z,99948.52
2018-01-31T09:25:54.747Z,99945.51
2018-01-31T09:27:00.929Z,99948.31
2018-01-31T09:28:07.111Z,99941.30
2018-01-31T09:29:13.316Z,99950.77
2018-01-31T09:30:19.524Z,99952.92
2018-01-31T09:31:25.698Z,99946.76
2018-01-31T09:32:32.022Z,99941.70
2018-01-31T09:33:38.236Z,99947.26
2018-01-31T09:34:44.367Z,99941.78
2018-01-31T09:35:50.212Z,99945.89
2018-01-31T09:36:56.385Z,99945.58
2018-01-31T09:38:02.576Z,99938.06
2018-01-31T09:39:08.788Z,99940.69
2018-01-31T09:40:14.915Z,99940.03
2018-01-31T09:41:21.143Z,99942.38
2018-01-31T09:42:27.301Z,99938.39
2018-01-31T09:43:33.518Z,99945.16
2018-01-31T09:44:39.433Z,99940.84
2018-01-31T09:45:44.915Z,99940.41
2018-01-31T09:46:51.828Z,99936.78
2018-01-31T09:47:57.627Z,99936.78
2018-01-31T09:49:05.503Z,99939.39
2018-01-31T09:50:11.600Z,99942.23
2018-01-31T09:51:19.159Z,99948.05
2018-01-31T09:52:27.009Z,99940.36
2018-01-31T09:53:31.829Z,99935.22
2018-01-31T09:54:38.224Z,99943.11
2018-01-31T09:55:44.171Z,99939.22
2018-01-31T09:56:49.624Z,99934.13
2018-01-31T09:57:55.857Z,99940.80
2018-01-31T09:59:02.041Z,99935.88
2018-01-31T10:00:07.847Z,99936.91
2018-01-31T10:01:14.024Z,99934.41
2018-01-31T10:02:20.301Z,99937.00
2018-01-31T10:03:26.473Z,99929.60
2018-01-31T10:04:32.636Z,99927.31
2018-01-31T10:05:38.784Z,99925.98
2018-01-31T10:06:44.919Z,99920.48
2018-01-31T10:07:51.053Z,99925.25
2018-01-31T10:08:57.259Z,99920.48
2018-01-31T10:10:03.403Z,99917.82
2018-01-31T10:11:09.628Z,99919.32
2018-01-31T10:12:15.818Z,99913.45
2018-01-31T10:13:21.986Z,99907.27
2018-01-31T10:14:28.186Z,99906.09
2018-01-31T10:15:34.355Z,99901.55
2018-01-31T10:16:40.572Z,99908.35
2018-01-31T10:17:46.725Z,99899.12
2018-01-31T10:18:52.902Z,99895.77
2018-01-31T10:19:59.044Z,99896.81
2018-01-31T10:21:05.226Z,99891.09
2018-01-31T10:22:11.391Z,99886.42
2018-01-31T10:23:17.569Z,99885.56
2018-01-31T10:24:23.785Z,99884.13
2018-01-31T10:25:29.953Z,99875.11
2018-01-31T10:26:36.146Z,99881.54
2018-01-31T10:27:42.292Z,99877.88
2018-01-31T10:28:48.477Z,99872.75
2018-01-31T10:29:54.604Z,99871.93
2018-01-31T10:31:00.834Z,99868.30
2018-01-31T10:32:07.048Z,99862.97
2018-01-31T10:33:13.260Z,99857.27
2018-01-31T10:34:19.133Z,99855.98
2018-01-31T10:35:25.330Z,99849.61
2018-01-31T10:36:31.531Z,99852.10
2018-01-31T10:37:37.781Z,99838.30
2018-01-31T10:38:43.915Z,99835.40
2018-01-31T10:39:50.953Z,99836.30
2018-01-31T10:40:57.890Z,99828.14
2018-01-31T10:42:04.075Z,99824.59
2018-01-31T10:43:10.311Z,99821.13
2018-01-31T10:44:16.456Z,99823.42
2018-01-31T10:45:22.212Z,99817.27
2018-01-31T10:46:28.136Z,99793.39
2018-01-31T10:47:34.303Z,99797.69
2018-01-31T10:48:40.518Z,99778.08
2018-01-31T10:49:46.718Z,99783.69
2018-01-31T10:50:52.959Z,99783.84
2018-01-31T10:51:59.168Z,99780.42
2018-01-31T10:53:05.328Z,99770.83
2018-01-31T10:57:28.722Z,99763.20
2018-01-31T10:57:30.361Z,99760.38
2018-01-31T10:58:44.712Z,99754.83
2018-01-31T10:59:50.853Z,99748.95
2018-01-31T11:00:57.020Z,99761.86
2018-01-31T11:02:03.144Z,99754.01
2018-01-31T11:03:10.272Z,99753.64
2018-01-31T11:04:16.540Z,99742.36
2018-01-31T11:05:21.976Z,99740.28
2018-01-31T11:06:29.719Z,99735.45
2018-01-31T11:07:39.756Z,99722.77
2018-01-31T11:08:45.765Z,99724.73
2018-01-31T11:09:51.923Z,99727.06
2018-01-31T11:10:58.006Z,99715.89
2018-01-31T11:12:04.217Z,99721.72
2018-01-31T11:13:11.511Z,99705.37
2018-01-31T11:14:17.699Z,99705.02
2018-01-31T11:15:24.787Z,99706.75
2018-01-31T11:16:31.029Z,99692.65
2018-01-31T11:17:36.860Z,99690.94
2018-01-31T11:18:43.027Z,99698.58
2018-01-31T11:19:49.085Z,99694.63
2018-01-31T11:20:55.248Z,99701.05
2018-01-31T11:22:01.916Z,99691.29
2018-01-31T11:23:08.612Z,99683.02
2018-01-31T11:24:15.246Z,99683.94
2018-01-31T11:25:22.316Z,99677.33
2018-01-31T11:26:28.544Z,99677.16
2018-01-31T11:27:35.539Z,99663.06
2018-01-31T11:28:42.095Z,99674.63
2018-01-31T11:29:49.208Z,99669.22
2018-01-31T11:30:56.964Z,99669.48
2018-01-31T11:32:03.319Z,99678.34
2018-01-31T11:33:10.510Z,99669.79
2018-01-31T11:34:16.968Z,99671.49
2018-01-31T11:35:23.333Z,99665.86
2018-01-31T11:36:30.096Z,99661.05
2018-01-31T11:37:36.648Z,99663.06
2018-01-31T11:38:42.807Z,99649.86
2018-01-31T11:39:49.310Z,99650.58
2018-01-31T11:40:55.738Z,99638.20
2018-01-31T11:42:01.775Z,99654.75
2018-01-31T11:43:08.116Z,99652.70
2018-01-31T11:44:17.838Z,99644.79
2018-01-31T11:45:24.708Z,99648.35
2018-01-31T11:46:30.966Z,99652.67
2018-01-31T11:47:37.939Z,99644.25
2018-01-31T11:48:44.841Z,99648.33
2018-01-31T11:49:51.668Z,99644.77
2018-01-31T11:50:58.028Z,99643.55
2018-01-31T11:52:04.367Z,99644.47
2018-01-31T11:53:10.567Z,99646.62
2018-01-31T11:54:16.984Z,99640.38
2018-01-31T11:55:25.361Z,99639.98
2018-01-31T11:56:31.435Z,99647.31
2018-01-31T11:57:37.668Z,99645.70
2018-01-31T11:58:43.614Z,99645.97
2018-01-31T11:59:49.571Z,99642.69
2018-01-31T12:00:55.108Z,99645.98
2018-01-31T12:02:01.009Z,99640.78
2018-01-31T12:03:08.631Z,99642.84
2018-01-31T12:04:14.556Z,99642.30
2018-01-31T12:05:20.533Z,99642.59
2018-01-31T12:06:26.424Z,99641.56
2018-01-31T12:07:32.308Z,99642.14
2018-01-31T12:08:38.217Z,99637.45
2018-01-31T12:09:44.562Z,99639.02
2018-01-31T12:10:50.143Z,99628.23
2018-01-31T12:11:56.030Z,99629.00
2018-01-31T12:14:44.481Z,99622.17
2018-01-31T12:16:12.220Z,99629.38
2018-01-31T12:17:31.420Z,99619.64
2018-01-31T12:18:48.353Z,99617.60
2018-01-31T12:20:14.227Z,99619.65
2018-01-31T12:21:31.156Z,99620.96
2018-01-31T12:22:48.027Z,99615.48
2018-01-31T12:24:05.055Z,99617.48
2018-01-31T12:25:22.011Z,99609.91
2018-01-31T12:26:39.547Z,99603.95
2018-01-31T12:27:56.592Z,99603.77
2018-01-31T12:29:13.602Z,99587.58
2018-01-31T12:30:30.445Z,99594.78
2018-01-31T12:31:52.014Z,99594.95
2018-01-31T12:33:08.963Z,99581.64
2018-01-31T12:34:25.933Z,99584.49
2018-01-31T12:35:42.905Z,99579.65
2018-01-31T12:36:59.766Z,99577.68
2018-01-31T12:38:16.677Z,99577.16
2018-01-31T12:39:21.323Z,99578.59
2018-01-31T12:40:26.004Z,99571.72
2018-01-31T12:41:30.721Z,99578.73
2018-01-31T12:42:35.396Z,99574.19
2018-01-31T12:43:40.263Z,99571.59
2018-01-31T12:44:45.427Z,99561.02
2018-01-31T12:45:50.384Z,99560.72
2018-01-31T12:47:07.412Z,99560.17
2018-01-31T12:48:24.579Z,99548.26
2018-01-31T12:49:41.541Z,99550.58
2018-01-31T12:50:59.408Z,99549.83
2018-01-31T12:52:28.330Z,99557.52
2018-01-31T12:53:39.968Z,99553.23
2018-01-31T12:56:00.044Z,99551.55
2018-01-31T12:57:32.486Z,99550.70
2018-01-31T12:58:49.499Z,99553.50
2018-01-31T13:00:06.854Z,99541.53
2018-01-31T13:01:23.810Z,99545.13
2018-01-31T13:04:20.914Z,99534.38
2018-01-31T13:07:16.462Z,99536.37
2018-01-31T13:08:33.149Z,99531.20
2018-01-31T13:09:49.745Z,99529.63
2018-01-31T13:11:06.503Z,99522.92
2018-01-31T13:12:23.381Z,99527.63
2018-01-31T13:13:40.264Z,99518.66
2018-01-31T13:14:59.917Z,99523.19
2018-01-31T13:16:20.313Z,99517.88
2018-01-31T13:19:14.440Z,99512.16
2018-01-31T13:20:31.262Z,99516.77
2018-01-31T13:21:48.439Z,99511.41
2018-01-31T13:23:05.152Z,99503.26
2018-01-31T13:24:21.953Z,99496.32
2018-01-31T13:25:39.061Z,99489.91
2018-01-31T13:26:55.963Z,99494.12
2018-01-31T13:28:18.227Z,99483.69
2018-01-31T13:29:26.532Z,99480.81
2018-01-31T13:30:43.617Z,99480.84
2018-01-31T13:32:01.074Z,99474.73
2018-01-31T13:33:23.373Z,99473.42
2018-01-31T13:34:40.197Z,99475.97
2018-01-31T13:35:57.048Z,99465.27
2018-01-31T13:38:56.843Z,99461.91
2018-01-31T13:40:13.431Z,99455.98
2018-01-31T13:41:30.137Z,99449.57
2018-01-31T13:42:49.227Z,99437.99
2018-01-31T13:44:05.023Z,99433.05
2018-01-31T13:45:21.776Z,99441.66
2018-01-31T13:46:40.942Z,99429.87
2018-01-31T13:47:57.771Z,99428.67
2018-01-31T13:49:14.879Z,99422.91
2018-01-31T13:50:32.408Z,99418.50
2018-01-31T13:51:49.251Z,99418.20
2018-01-31T13:53:07.029Z,99417.45
2018-01-31T13:54:23.625Z,99413.85
2018-01-31T13:55:40.609Z,99419.25
2018-01-31T13:56:57.300Z,99418.66
2018-01-31T13:58:14.100Z,99411.13
2018-01-31T13:59:30.838Z,99413.19
2018-01-31T14:00:47.685Z,99410.25
2018-01-31T14:02:04.440Z,99399.74
2018-01-31T14:03:21.482Z,99395.69
2018-01-31T14:04:38.318Z,99388.22
2018-01-31T14:05:55.020Z,99394.33
2018-01-31T14:07:12.098Z,99386.48
2018-01-31T14:08:29.611Z,99396.72
2018-01-31T14:09:46.602Z,99391.28
2018-01-31T14:11:12.275Z,99390.14
2018-01-31T14:12:42.020Z,99387.42
2018-01-31T14:13:58.945Z,99380.80
2018-01-31T14:15:15.741Z,99376.02
2018-01-31T14:16:32.848Z,99378.05
2018-01-31T14:17:50.107Z,99373.67
2018-01-31T14:19:06.784Z,99369.80
2018-01-31T14:22:06.400Z,99361.64
2018-01-31T14:25:20.884Z,99352.27
2018-01-31T14:26:48.485Z,99351.63
2018-01-31T14:28:05.637Z,99353.79
2018-01-31T14:29:22.353Z,99349.11
2018-01-31T14:30:39.168Z,99344.70
2018-01-31T14:31:55.821Z,99342.69
2018-01-31T14:33:12.679Z,99340.07
2018-01-31T14:34:29.890Z,99335.53
2018-01-31T14:35:46.622Z,99330.86
2018-01-31T14:36:51.000Z,99330.22
2018-01-31T14:37:55.388Z,99335.77
2018-01-31T14:38:59.828Z,99325.44
2018-01-31T14:40:04.207Z,99327.63
2018-01-31T14:41:08.704Z,99328.45
2018-01-31T14:42:13.135Z,99329.30
2018-01-31T14:43:17.808Z,99324.11
2018-01-31T14:44:22.408Z,99330.74
2018-01-31T14:45:26.797Z,99329.09
2018-01-31T14:46:31.161Z,99321.70
2018-01-31T14:47:35.591Z,99322.13
2018-01-31T14:48:40.256Z,99315.55
2018-01-31T14:49:44.634Z,99311.61
2018-01-31T14:50:54.252Z,99315.53
2018-01-31T14:51:58.604Z,99317.77
2018-01-31T14:53:03.756Z,99313.81
2018-01-31T14:54:08.185Z,99310.06
2018-01-31T14:55:12.704Z,99309.49
2018-01-31T14:56:17.090Z,99314.16
2018-01-31T14:57:21.467Z,99311.83
2018-01-31T14:58:25.824Z,99304.92
2018-01-31T14:59:30.188Z,99308.47
2018-01-31T15:00:34.456Z,99306.38
2018-01-31T15:01:38.875Z,99309.98
2018-01-31T15:02:44.148Z,99309.03
2018-01-31T15:03:48.504Z,99300.20
2018-01-31T15:04:52.879Z,99308.89
2018-01-31T15:05:57.224Z,99305.86
2018-01-31T15:07:01.636Z,99305.83
2018-01-31T15:08:06.004Z,99302.99
2018-01-31T15:09:10.448Z,99310.14
2018-01-31T15:10:14.866Z,99300.20